createdAt,value
2019-01-05T00:01:13.385Z,100066.02
2019-01-05T00:04:03.659Z,100075.34
2019-01-05T00:07:00.368Z,100087.80
2019-01-05T00:10:08.791Z,100063.41
2019-01-05T00:12:56.955Z,100056.09
2019-01-05T00:15:46.216Z,100052.75
2019-01-05T00:18:38.842Z,100057.94
2019-01-05T00:21:35.230Z,100056.25
2019-01-05T00:24:36.439Z,100078.57
2019-01-05T00:27:26.752Z,100074.58
2019-01-05T00:30:20.993Z,100059.54
2019-01-05T00:33:19.057Z,100062.48
2019-01-05T00:36:33.936Z,100077.34
2019-01-05T00:39:23.779Z,100071.47
2019-01-05T00:42:32.181Z,100077.19
2019-01-05T00:45:38.532Z,100060.83
2019-01-05T00:48:26.824Z,100091.78
2019-01-05T00:51:22.265Z,100057.91
2019-01-05T00:54:09.447Z,100057.94
2019-01-05T00:56:59.684Z,100062.98
2019-01-05T01:00:00.924Z,100057.55
2019-01-05T01:03:05.596Z,100058.80
2019-01-05T01:05:53.326Z,100044.63
2019-01-05T01:08:41.054Z,100063.56
2019-01-05T01:11:39.653Z,100045.30
2019-01-05T01:14:28.167Z,100057.54
2019-01-05T01:17:26.387Z,100034.53
2019-01-05T01:20:15.793Z,100029.95
2019-01-05T01:23:13.288Z,100022.23
2019-01-05T01:25:58.435Z,100027.19
2019-01-05T01:29:06.314Z,100032.70
2019-01-05T01:32:05.830Z,100030.87
2019-01-05T01:35:04.971Z,100027.37
2019-01-05T01:38:34.179Z,100031.79
2019-01-05T01:41:27.031Z,100020.84
2019-01-05T01:44:25.985Z,100011.87
2019-01-05T01:47:17.118Z,100006.28
2019-01-05T01:50:09.167Z,100027.32
2019-01-05T01:52:58.078Z,99999.31
2019-01-05T01:55:56.088Z,100013.19
2019-01-05T01:59:06.490Z,99991.75
2019-01-05T02:01:58.827Z,99992.69
2019-01-05T02:04:44.356Z,99984.64
2019-01-05T02:07:34.753Z,100008.00
2019-01-05T02:10:30.448Z,99979.09
2019-01-05T02:13:23.455Z,99975.25
2019-01-05T02:16:18.525Z,99972.64
2019-01-05T02:19:38.766Z,99978.48
2019-01-05T02:23:23.934Z,99983.36
2019-01-05T02:27:06.344Z,99961.30
2019-01-05T02:30:50.351Z,99946.91
2019-01-05T02:34:12.591Z,99941.93
2019-01-05T02:37:53.088Z,99981.55
2019-01-05T02:41:23.022Z,99957.14
2019-01-05T02:45:01.865Z,99934.91
2019-01-05T02:48:40.431Z,99939.33
2019-01-05T02:52:25.364Z,99922.13
2019-01-05T02:56:25.924Z,99917.33
2019-01-05T03:00:08.517Z,99923.91
2019-01-05T03:03:28.147Z,99924.31
2019-01-05T03:06:56.455Z,99895.16
2019-01-05T03:10:22.946Z,99887.05
2019-01-05T03:13:45.862Z,99900.58
2019-01-05T03:17:06.904Z,99904.47
2019-01-05T03:20:34.659Z,99881.76
2019-01-05T03:24:32.419Z,99878.06
2019-01-05T03:28:05.751Z,99854.70
2019-01-05T03:31:41.266Z,99857.39
2019-01-05T03:35:10.426Z,99842.09
2019-01-05T03:38:43.309Z,99834.09
2019-01-05T03:42:06.283Z,99826.91
2019-01-05T03:46:22.601Z,99824.07
2019-01-05T03:49:49.137Z,99834.48
2019-01-05T03:53:24.112Z,99814.36
2019-01-05T03:56:44.904Z,99825.35
2019-01-05T04:00:10.063Z,99799.39
2019-01-05T04:03:45.656Z,99806.65
2019-01-05T04:07:43.118Z,99788.77
2019-01-05T04:11:15.037Z,99817.69
2019-01-05T04:15:04.530Z,99785.01
2019-01-05T04:18:43.301Z,99787.11
2019-01-05T04:22:33.380Z,99776.56
2019-01-05T04:26:06.011Z,99774.02
2019-01-05T04:29:48.769Z,99772.28
2019-01-05T04:33:26.941Z,99753.84
2019-01-05T04:37:02.857Z,99770.97
2019-01-05T04:40:42.291Z,99775.61
2019-01-05T04:44:02.679Z,99734.81
2019-01-05T04:47:35.645Z,99720.14
2019-01-05T04:51:07.109Z,99723.61
2019-01-05T04:54:39.418Z,99735.03
2019-01-05T04:58:29.339Z,99708.94
2019-01-05T05:01:51.225Z,99713.69
2019-01-05T05:05:15.416Z,99692.23
2019-01-05T05:08:34.899Z,99695.81
2019-01-05T05:12:00.621Z,99680.34
2019-01-05T05:15:33.745Z,99664.36
2019-01-05T05:18:59.738Z,99649.28
2019-01-05T05:22:41.276Z,99633.79
2019-01-05T05:26:16.358Z,99639.53
2019-01-05T05:29:52.310Z,99636.77
2019-01-05T05:33:30.461Z,99613.48
2019-01-05T05:36:55.972Z,99608.16
2019-01-05T05:40:32.595Z,99611.61
2019-01-05T05:44:20.262Z,99629.67
2019-01-05T05:47:49.952Z,99595.28
2019-01-05T05:51:04.719Z,99595.00
2019-01-05T05:54:37.940Z,99604.30
2019-01-05T05:58:15.714Z,99612.21
2019-01-05T06:01:51.182Z,99600.08
2019-01-05T06:05:27.872Z,99624.83
2019-01-05T06:08:55.381Z,99603.25
2019-01-05T06:12:36.247Z,99599.00
2019-01-05T06:16:00.715Z,99593.10
2019-01-05T06:19:43.870Z,99624.16
2019-01-05T06:23:33.172Z,99599.06
2019-01-05T06:27:12.141Z,99594.30
2019-01-05T06:30:40.601Z,99621.13
2019-01-05T06:34:15.588Z,99635.97
2019-01-05T06:37:52.956Z,99591.95
2019-01-05T06:41:11.819Z,99607.36
2019-01-05T06:44:46.161Z,99619.43
2019-01-05T06:48:24.841Z,99569.88
2019-01-05T06:52:03.578Z,99564.50
2019-01-05T06:55:33.760Z,99565.28
2019-01-05T06:59:17.722Z,99579.89
2019-01-05T07:02:47.409Z,99580.95
2019-01-05T07:06:12.877Z,99560.70
2019-01-05T07:09:44.423Z,99555.27
2019-01-05T07:13:21.497Z,99558.27
2019-01-05T07:16:44.002Z,99567.94
2019-01-05T07:20:14.247Z,99544.05
2019-01-05T07:23:55.113Z,99568.88
2019-01-05T07:27:25.650Z,99545.86
2019-01-05T07:31:09.188Z,99541.33
2019-01-05T07:34:43.924Z,99523.63
2019-01-05T07:38:06.214Z,99536.84
2019-01-05T07:41:31.478Z,99506.80
2019-01-05T07:44:36.104Z,99516.23
2019-01-05T07:48:31.959Z,99511.19
2019-01-05T07:51:57.785Z,99519.20
2019-01-05T07:56:00.007Z,99496.27
2019-01-05T07:59:48.461Z,99500.91
2019-01-05T08:03:30.895Z,99482.58
2019-01-05T08:06:56.964Z,99479.31
2019-01-05T08:10:20.214Z,99464.58
2019-01-05T08:13:42.976Z,99495.64
2019-01-05T08:17:17.536Z,99465.77
2019-01-05T08:21:05.138Z,99475.36
2019-01-05T08:24:49.298Z,99458.44
2019-01-05T08:28:28.468Z,99470.94
2019-01-05T08:32:06.793Z,99446.17
2019-01-05T08:35:36.223Z,99452.08
2019-01-05T08:38:55.430Z,99444.16
2019-01-05T08:42:05.501Z,99446.22
2019-01-05T08:45:49.798Z,99436.47
2019-01-05T08:49:30.268Z,99430.63
2019-01-05T08:52:54.581Z,99464.69
2019-01-05T08:56:32.353Z,99431.38
2019-01-05T09:00:05.984Z,99415.50
2019-01-05T09:03:36.941Z,99396.98
2019-01-05T09:07:14.938Z,99415.91
2019-01-05T09:10:52.713Z,99413.09
2019-01-05T09:14:14.455Z,99442.55
2019-01-05T09:17:45.544Z,99398.48
2019-01-05T09:21:06.920Z,99396.81
2019-01-05T09:25:05.242Z,99396.47
2019-01-05T09:28:46.491Z,99392.47
2019-01-05T09:32:11.646Z,99424.70
2019-01-05T09:35:48.531Z,99388.14
2019-01-05T09:39:15.242Z,99391.98
2019-01-05T09:42:47.628Z,99393.44
2019-01-05T09:46:14.518Z,99408.08
2019-01-05T09:49:42.387Z,99393.25
2019-01-05T09:53:23.453Z,99384.86
2019-01-05T09:57:08.307Z,99368.47
2019-01-05T10:00:56.305Z,99351.30
2019-01-05T10:04:30.156Z,99347.38
2019-01-05T10:08:00.470Z,99353.78
2019-01-05T10:11:37.374Z,99362.30
2019-01-05T10:15:17.345Z,99362.31
2019-01-05T10:18:46.481Z,99442.20
2019-01-05T10:21:58.924Z,99324.90
2019-01-05T10:25:38.037Z,99329.50
2019-01-05T10:29:03.346Z,99350.09
2019-01-05T10:32:32.850Z,99319.00
2019-01-05T10:36:06.571Z,99315.63
2019-01-05T10:39:43.853Z,99313.55
2019-01-05T10:43:09.408Z,99306.83
2019-01-05T10:46:37.895Z,99304.67
2019-01-05T10:50:08.829Z,99353.02
2019-01-05T10:53:44.857Z,99349.73
2019-01-05T10:57:21.487Z,99289.75
2019-01-05T11:01:08.295Z,99289.30
2019-01-05T11:04:42.740Z,99283.00
2019-01-05T11:08:40.064Z,99263.58
2019-01-05T11:12:25.327Z,99276.47
2019-01-05T11:16:12.340Z,99259.66
2019-01-05T11:19:46.179Z,99239.06
2019-01-05T11:23:17.857Z,99237.40
2019-01-05T11:26:43.416Z,99242.89
2019-01-05T11:30:07.490Z,99267.73
2019-01-05T11:33:45.032Z,99248.39
2019-01-05T11:37:09.796Z,99248.39
2019-01-05T11:40:43.711Z,99243.75
2019-01-05T11:44:08.237Z,99231.13
2019-01-05T11:47:33.953Z,99223.16
2019-01-05T11:51:03.316Z,99227.02
2019-01-05T11:54:26.036Z,99239.31
2019-01-05T11:58:22.457Z,99237.28
2019-01-05T12:01:46.817Z,99249.86
2019-01-05T12:05:43.420Z,99275.52
2019-01-05T12:09:12.377Z,99276.48
2019-01-05T12:12:54.418Z,99265.45
2019-01-05T12:16:15.576Z,99276.45
2019-01-05T12:20:00.781Z,99299.58
2019-01-05T12:23:22.195Z,99269.73
2019-01-05T12:26:59.207Z,99272.75
2019-01-05T12:30:39.535Z,99277.34
2019-01-05T12:34:27.723Z,99278.57
2019-01-05T12:37:55.459Z,99263.47
2019-01-05T12:41:22.271Z,99298.48
2019-01-05T12:44:51.746Z,99282.97
2019-01-05T12:49:01.297Z,99296.85
2019-01-05T12:52:38.916Z,99304.10
2019-01-05T12:56:29.844Z,99289.77
2019-01-05T12:59:50.859Z,99289.32
2019-01-05T13:03:12.054Z,99298.35
2019-01-05T13:06:51.222Z,99308.53
2019-01-05T13:10:36.893Z,99289.63
2019-01-05T13:14:00.683Z,99317.00
2019-01-05T13:17:36.263Z,99309.02
2019-01-05T13:21:07.637Z,99313.14
2019-01-05T13:24:45.173Z,99324.84
2019-01-05T13:28:34.506Z,99342.03
2019-01-05T13:32:18.620Z,99325.97
2019-01-05T13:35:35.351Z,99366.25
2019-01-05T13:39:16.472Z,99334.20
2019-01-05T13:42:53.919Z,99346.36
2019-01-05T13:46:28.682Z,99345.92
2019-01-05T13:49:51.293Z,99359.44
2019-01-05T13:53:30.106Z,99351.83
2019-01-05T13:56:28.408Z,99356.23
2019-01-05T13:59:18.090Z,99370.70
2019-01-05T14:02:07.735Z,99368.31
2019-01-05T14:04:56.806Z,99360.40
2019-01-05T14:08:02.416Z,99364.30
2019-01-05T14:10:51.842Z,99368.09
2019-01-05T14:13:40.818Z,99371.08
2019-01-05T14:16:37.412Z,99361.37
2019-01-05T14:19:31.548Z,99379.95
2019-01-05T14:22:26.423Z,99374.90
2019-01-05T14:25:17.304Z,99374.05
2019-01-05T14:28:07.880Z,99393.81
2019-01-05T14:30:56.063Z,99385.42
2019-01-05T14:33:47.451Z,99377.80
2019-01-05T14:36:48.598Z,99381.99
2019-01-05T14:39:37.771Z,99380.29
2019-01-05T14:42:27.009Z,99370.91
2019-01-05T14:45:23.562Z,99378.41
2019-01-05T14:48:30.556Z,99389.34
2019-01-05T14:51:21.229Z,99391.86
2019-01-05T14:54:09.211Z,99388.11
2019-01-05T14:57:09.480Z,99395.24
2019-01-05T14:59:59.048Z,99391.13
2019-01-05T15:02:47.018Z,99415.26
2019-01-05T15:05:44.711Z,99404.38
2019-01-05T15:08:45.507Z,99395.45
2019-01-05T15:11:53.499Z,99414.72
2019-01-05T15:14:44.713Z,99410.52
2019-01-05T15:17:41.409Z,99418.51
2019-01-05T15:20:39.621Z,99413.78
2019-01-05T15:23:41.400Z,99425.14
2019-01-05T15:26:31.692Z,99415.45
2019-01-05T15:29:41.906Z,99410.27
2019-01-05T15:32:39.996Z,99418.28
2019-01-05T15:35:40.591Z,99429.98
2019-01-05T15:38:44.177Z,99434.27
2019-01-05T15:41:43.920Z,99424.16
2019-01-05T15:44:32.623Z,99442.70
2019-01-05T15:47:21.964Z,99417.12
2019-01-05T15:50:10.410Z,99430.20
2019-01-05T15:53:17.883Z,99439.86
2019-01-05T15:56:07.456Z,99417.97
2019-01-05T15:58:58.788Z,99420.54
2019-01-05T16:01:46.710Z,99414.67
2019-01-05T16:04:35.194Z,99428.98
2019-01-05T16:07:31.808Z,99428.20
2019-01-05T16:10:36.311Z,99424.10
2019-01-05T16:13:36.575Z,99434.34
2019-01-05T16:16:26.368Z,99451.98
2019-01-05T16:19:15.593Z,99453.70
2019-01-05T16:22:11.701Z,99436.41
2019-01-05T16:25:14.844Z,99438.86
2019-01-05T16:28:09.535Z,99452.34
2019-01-05T16:31:13.022Z,99451.13
2019-01-05T16:34:01.087Z,99444.84
2019-01-05T16:36:52.013Z,99441.09
2019-01-05T16:40:00.028Z,99471.92
2019-01-05T16:42:52.200Z,99449.98
2019-01-05T16:45:55.613Z,99444.48
2019-01-05T16:48:47.111Z,99467.59
2019-01-05T16:51:42.139Z,99458.66
2019-01-05T16:54:32.435Z,99463.67
2019-01-05T16:57:22.211Z,99459.43
2019-01-05T17:00:13.032Z,99467.37
2019-01-05T17:03:16.056Z,99460.61
2019-01-05T17:06:05.346Z,99480.86
2019-01-05T17:08:55.113Z,99463.67
2019-01-05T17:11:45.660Z,99479.38
2019-01-05T17:14:35.840Z,99462.09
2019-01-05T17:17:21.223Z,99465.88
2019-01-05T17:20:13.146Z,99477.75
2019-01-05T17:23:03.771Z,99480.36
2019-01-05T17:26:04.395Z,99488.80
2019-01-05T17:28:53.737Z,99477.96
2019-01-05T17:31:37.359Z,99500.22
2019-01-05T17:34:25.398Z,99472.45
2019-01-05T17:37:27.113Z,99490.16
2019-01-05T17:40:27.568Z,99507.45
2019-01-05T17:43:22.635Z,99506.71
2019-01-05T17:46:11.967Z,99500.02
2019-01-05T17:49:05.044Z,99524.45
2019-01-05T17:51:54.606Z,99536.69
2019-01-05T17:54:45.561Z,99510.55
2019-01-05T17:57:49.211Z,99515.23
2019-01-05T18:00:40.312Z,99533.75
2019-01-05T18:03:35.564Z,99524.41
2019-01-05T18:06:25.774Z,99536.23
2019-01-05T18:09:15.590Z,99538.00
2019-01-05T18:12:22.431Z,99539.66
2019-01-05T18:15:13.844Z,99553.58
2019-01-05T18:18:01.863Z,99548.97
2019-01-05T18:20:51.196Z,99549.38
2019-01-05T18:23:39.866Z,99581.80
2019-01-05T18:26:38.505Z,99580.17
2019-01-05T18:29:45.335Z,99601.72
2019-01-05T18:32:32.899Z,99594.85
2019-01-05T18:35:21.822Z,99590.73
2019-01-05T18:38:12.038Z,99594.84
2019-01-05T18:41:07.616Z,99598.50
2019-01-05T18:43:58.636Z,99594.26
2019-01-05T18:46:47.177Z,99587.08
2019-01-05T18:49:28.390Z,99583.28
2019-01-05T18:52:25.014Z,99598.45
2019-01-05T18:55:11.744Z,99602.52
2019-01-05T18:58:00.289Z,99610.14
2019-01-05T19:01:00.148Z,99615.29
2019-01-05T19:03:49.511Z,99624.50
2019-01-05T19:06:48.724Z,99616.16
2019-01-05T19:09:39.183Z,99618.69
2019-01-05T19:12:28.299Z,99620.76
2019-01-05T19:15:30.810Z,99642.39
2019-01-05T19:18:19.948Z,99640.73
2019-01-05T19:21:09.543Z,99642.08
2019-01-05T19:24:02.477Z,99652.70
2019-01-05T19:26:52.821Z,99659.33
2019-01-05T19:29:51.772Z,99658.52
2019-01-05T19:32:41.054Z,99648.36
2019-01-05T19:35:43.096Z,99657.80
2019-01-05T19:38:31.335Z,99662.31
2019-01-05T19:41:21.094Z,99666.34
2019-01-05T19:44:10.476Z,99653.66
2019-01-05T19:47:11.924Z,99667.30
2019-01-05T19:50:13.067Z,99661.66
2019-01-05T19:53:03.274Z,99661.66
2019-01-05T19:56:08.961Z,99669.65
2019-01-05T19:59:09.261Z,99668.52
2019-01-05T20:02:00.868Z,99661.61
2019-01-05T20:05:01.563Z,99665.25
2019-01-05T20:07:54.762Z,99661.09
2019-01-05T20:11:02.808Z,99667.16
2019-01-05T20:14:12.668Z,99658.35
2019-01-05T20:17:04.756Z,99654.97
2019-01-05T20:19:52.094Z,99657.98
2019-01-05T20:22:37.796Z,99664.05
2019-01-05T20:25:32.973Z,99671.14
2019-01-05T20:28:23.481Z,99668.56
2019-01-05T20:31:15.871Z,99677.42
2019-01-05T20:34:24.682Z,99680.52
2019-01-05T20:37:17.436Z,99676.27
2019-01-05T20:40:10.058Z,99677.95
2019-01-05T20:43:05.098Z,99680.02
2019-01-05T20:46:04.939Z,99682.64
2019-01-05T20:48:53.766Z,99686.95
2019-01-05T20:51:54.969Z,99679.71
2019-01-05T20:54:45.435Z,99682.19
2019-01-05T20:57:34.898Z,99681.43
2019-01-05T21:00:32.612Z,99691.90
2019-01-05T21:03:35.166Z,99691.90
2019-01-05T21:06:29.854Z,99686.30
2019-01-05T21:09:20.783Z,99687.34
2019-01-05T21:12:16.209Z,99688.06
2019-01-05T21:15:10.299Z,99689.06
2019-01-05T21:17:57.904Z,99697.51
2019-01-05T21:20:46.511Z,99689.28
2019-01-05T21:23:42.892Z,99696.30
2019-01-05T21:26:32.656Z,99689.52
2019-01-05T21:29:26.158Z,99689.22
2019-01-05T21:32:34.182Z,99690.39
2019-01-05T21:35:24.319Z,99690.48
2019-01-05T21:38:15.136Z,99690.11
2019-01-05T21:41:04.008Z,99703.53
2019-01-05T21:43:54.431Z,99703.59
2019-01-05T21:47:04.389Z,99701.64
2019-01-05T21:50:01.746Z,99689.66
2019-01-05T21:52:55.245Z,99705.25
2019-01-05T21:55:43.982Z,99690.02
2019-01-05T21:58:41.704Z,99693.31
2019-01-05T22:01:49.217Z,99703.17
2019-01-05T22:04:39.801Z,99692.41
2019-01-05T22:07:34.635Z,99700.30
2019-01-05T22:10:25.522Z,99702.08
2019-01-05T22:13:21.092Z,99701.15
2019-01-05T22:16:17.126Z,99685.58
2019-01-05T22:19:22.381Z,99685.58
2019-01-05T22:22:11.549Z,99684.77
2019-01-05T22:25:07.229Z,99680.25
2019-01-05T22:27:57.094Z,99684.97
2019-01-05T22:30:46.921Z,99693.91
2019-01-05T22:33:36.146Z,99692.45
2019-01-05T22:36:41.368Z,99682.42
2019-01-05T22:39:37.002Z,99676.30
2019-01-05T22:42:26.369Z,99674.58
2019-01-05T22:45:22.562Z,99671.59
2019-01-05T22:48:19.997Z,99667.44
2019-01-05T22:51:09.298Z,99675.02
2019-01-05T22:54:03.691Z,99667.84
2019-01-05T22:56:53.110Z,99662.10
2019-01-05T23:00:00.001Z,99664.50
2019-01-05T23:02:49.408Z,99659.45
2019-01-05T23:05:48.491Z,99656.83
2019-01-05T23:08:40.824Z,99656.91
2019-01-05T23:11:33.580Z,99663.01
2019-01-05T23:14:23.070Z,99648.65
2019-01-05T23:17:19.499Z,99649.55
2019-01-05T23:20:08.534Z,99646.52
2019-01-05T23:22:58.707Z,99645.92
2019-01-05T23:25:47.375Z,99638.65
2019-01-05T23:28:32.791Z,99630.97
2019-01-05T23:31:34.183Z,99633.45
2019-01-05T23:34:26.527Z,99637.59
2019-01-05T23:37:14.313Z,99632.94
2019-01-05T23:40:02.191Z,99642.70
2019-01-05T23:42:42.226Z,99625.25
2019-01-05T23:45:41.610Z,99620.61
2019-01-05T23:48:33.050Z,99618.13
2019-01-05T23:51:39.070Z,99620.55
2019-01-05T23:54:29.666Z,99622.31
2019-01-05T23:57:23.876Z,99622.73
